Time;durP1;ratioP1;P1;durP2;ratioP2;P2;SDS_P1;SDS_P2;PMS_P1;PMS_P2;Temp;Humidity;BMP_temperature;BMP_pressure;BME280_temperature;BME280_humidity;BME280_pressure;Samples;Min_cycle;Max_cycle;Signal;HPM_P1;HPM_P2
2021/10/12 03:03:17;;;;;;;67.55;24.15;;;;;;;7.18;62.20;100004.09;5682630;24;20022;-90
2021/10/12 03:05:45;;;;;;;54.15;22.23;;;;;;;7.24;61.75;100003.00;4770992;30;20046;-90
2021/10/12 03:08:12;;;;;;;51.85;21.23;;;;;;;7.10;61.42;99971.22;4749161;29;20048;-90
2021/10/12 03:10:38;;;;;;;63.35;22.17;;;;;;;7.32;61.03;99987.22;4773285;30;20102;-91
2021/10/12 03:13:04;;;;;;;58.38;22.35;;;;;;;7.47;60.94;99990.72;4760561;29;20422;-91
2021/10/12 03:15:39;;;;;;;55.17;22.23;;;;;;;7.63;60.57;99993.44;4788234;30;20044;-94
2021/10/12 03:18:32;;;;;;;50.88;21.80;;;;;;;7.73;60.69;99996.94;4770024;30;20142;-89
2021/10/12 03:21:01;;;;;;;57.88;22.17;;;;;;;7.76;60.59;99993.66;4761746;29;20046;-90
2021/10/12 03:23:47;;;;;;;62.80;21.70;;;;;;;7.29;60.52;99907.84;4800317;29;20043;-89
2021/10/12 03:26:14;;;;;;;53.85;21.52;;;;;;;7.62;60.57;99962.69;4756827;29;20054;-91
2021/10/12 03:28:40;;;;;;;66.75;22.38;;;;;;;7.41;60.48;99934.72;4756259;29;20463;-93
2021/10/12 03:31:21;;;;;;;64.18;22.00;;;;;;;7.70;60.85;99983.88;4769600;29;20540;-91
2021/10/12 03:33:48;;;;;;;55.85;22.13;;;;;;;7.45;60.84;99943.97;4762286;30;20069;-91
2021/10/12 03:36:17;;;;;;;60.42;23.45;;;;;;;7.65;61.24;99981.19;4798113;24;20674;-90
2021/10/12 03:38:46;;;;;;;62.55;21.17;;;;;;;7.57;61.06;99972.75;4786326;29;20046;-89
2021/10/12 03:41:17;;;;;;;56.38;21.38;;;;;;;7.39;60.98;99946.97;4779725;29;20065;-91
2021/10/12 03:43:43;;;;;;;69.35;24.70;;;;;;;7.53;60.63;99972.50;4790693;29;20043;-89
2021/10/12 03:46:21;;;;;;;64.60;21.67;;;;;;;7.52;60.99;99974.41;4773147;29;20513;-89
2021/10/12 03:48:47;;;;;;;62.50;21.55;;;;;;;7.41;61.09;99963.81;4772438;30;20035;-91
2021/10/12 03:51:19;;;;;;;59.92;22.35;;;;;;;7.45;61.11;99970.34;4789938;29;20050;-92
2021/10/12 03:53:46;;;;;;;64.97;22.42;;;;;;;7.09;61.45;99923.41;4795838;29;20051;-94
2021/10/12 03:56:12;;;;;;;62.90;23.75;;;;;;;7.09;61.39;99934.28;4789029;29;20074;-89
2021/10/12 03:58:39;;;;;;;62.78;23.15;;;;;;;7.41;61.81;99986.38;4772637;30;20517;-92
2021/10/12 04:01:06;;;;;;;66.97;23.35;;;;;;;7.25;61.46;99955.72;4789229;29;20019;-92
2021/10/12 04:03:33;;;;;;;65.07;22.35;;;;;;;6.90;61.33;99904.13;4772671;30;20047;-92
2021/10/12 04:06:06;;;;;;;88.40;24.52;;;;;;;6.97;61.59;99920.94;4771785;29;20050;-92
2021/10/12 04:08:32;;;;;;;56.42;23.08;;;;;;;7.14;62.07;99956.81;4793801;29;20055;-89
2021/10/12 04:10:58;;;;;;;58.50;22.88;;;;;;;6.95;61.91;99934.81;4768791;30;20142;-93
2021/10/12 04:13:25;;;;;;;69.35;23.63;;;;;;;6.94;61.63;99932.38;4783532;30;20043;-93
2021/10/12 04:15:51;;;;;;;67.03;24.27;;;;;;;7.09;61.60;99967.72;4776343;30;20039;-92
2021/10/12 04:18:17;;;;;;;79.20;25.27;;;;;;;6.81;61.71;99929.13;4765034;29;20043;-91
2021/10/12 04:20:43;;;;;;;68.18;24.70;;;;;;;6.70;61.94;99911.19;4772849;30;20162;-95
2021/10/12 04:23:11;;;;;;;67.97;24.50;;;;;;;6.58;62.21;99897.06;4779120;30;20082;-81
2021/10/12 04:25:38;;;;;;;;;;;;;;;7.15;62.27;99976.66;4802358;29;20053;-84
2021/10/12 04:28:11;;;;;;;65.05;27.02;;;;;;;7.21;62.08;99972.84;4792074;29;19924;-84
2021/10/12 04:30:44;;;;;;;66.68;25.35;;;;;;;7.27;62.10;99980.72;4803538;29;20043;-81
2021/10/12 04:33:14;;;;;;;68.55;25.25;;;;;;;7.27;62.10;99980.72;4803630;29;20075;-77
2021/10/12 04:35:41;;;;;;;54.70;22.58;;;;;;;7.30;62.09;99977.44;4792990;29;20059;-76
2021/10/12 04:38:07;;;;;;;58.30;22.65;;;;;;;7.33;61.95;99976.09;4786398;29;20425;-76
2021/10/12 04:40:33;;;;;;;58.33;24.60;;;;;;;7.44;61.72;99977.69;4786288;29;20051;-85
2021/10/12 04:43:04;;;;;;;59.92;22.33;;;;;;;7.37;61.58;99971.72;4786820;29;20094;-81
2021/10/12 04:45:31;;;;;;;52.42;22.33;;;;;;;7.25;61.63;99982.91;4786929;30;20094;-82
2021/10/12 04:47:58;;;;;;;73.90;23.08;;;;;;;7.13;61.97;99963.34;4741429;30;20047;-80
2021/10/12 04:50:24;;;;;;;60.20;21.45;;;;;;;7.21;61.84;99981.00;4770027;30;20187;-80
2021/10/12 04:52:51;;;;;;;46.53;21.60;;;;;;;7.26;61.77;99973.66;4787269;30;20134;-80
2021/10/12 04:55:17;;;;;;;49.70;22.75;;;;;;;7.21;61.86;99970.13;4771210;30;20533;-81
2021/10/12 04:57:43;;;;;;;43.55;21.38;;;;;;;7.29;61.63;99972.28;4786917;30;20544;-81
2021/10/12 05:00:11;;;;;;;76.35;22.23;;;;;;;7.24;61.47;99951.34;4786571;30;20082;-81
2021/10/12 05:02:37;;;;;;;65.10;22.80;;;;;;;7.45;62.23;99964.88;4786929;30;20058;-83
2021/10/12 05:05:04;;;;;;;65.40;22.17;;;;;;;7.48;61.60;99967.91;4786557;30;20051;-81
2021/10/12 05:07:32;;;;;;;58.53;21.52;;;;;;;7.44;61.45;99964.09;4786083;30;20143;-83
2021/10/12 05:09:58;;;;;;;53.85;22.30;;;;;;;7.48;61.37;99967.91;4786835;30;20043;-81
2021/10/12 05:12:25;;;;;;;54.10;21.70;;;;;;;7.53;61.60;99975.22;4786850;30;20074;-79
2021/10/12 05:14:51;;;;;;;54.72;22.38;;;;;;;7.54;61.27;99958.59;4786605;30;20062;-81
2021/10/12 05:17:33;;;;;;;51.03;22.63;;;;;;;7.63;61.09;99963.50;4786440;30;20047;-80
2021/10/12 05:20:00;;;;;;;61.10;23.25;;;;;;;7.81;60.76;99968.31;4786573;30;20104;-80
2021/10/12 05:22:26;;;;;;;57.03;22.65;;;;;;;7.70;60.78;99953.94;4786562;30;20058;-83
2021/10/12 05:24:52;;;;;;;59.78;23.63;;;;;;;7.79;60.64;99959.63;4786645;30;20399;-81
2021/10/12 05:27:18;;;;;;;61.83;23.25;;;;;;;7.86;60.49;99967.50;4786534;30;20054;-86
2021/10/12 05:29:45;;;;;;;53.45;22.00;;;;;;;7.96;59.97;99960.09;4770544;30;20059;-80
2021/10/12 05:32:11;;;;;;;56.33;20.90;;;;;;;8.06;60.03;99958.41;4786561;30;20039;-81
2021/10/12 05:34:37;;;;;;;51.30;21.60;;;;;;;8.17;59.33;99959.97;4786220;30;20514;-84
2021/10/12 05:37:03;;;;;;;52.33;21.60;;;;;;;8.20;59.35;99962.94;4786271;30;20058;-80
2021/10/12 05:39:29;;;;;;;63.47;22.40;;;;;;;8.28;59.52;99966.16;4786541;30;20102;-83
2021/10/12 05:41:56;;;;;;;47.65;21.70;;;;;;;8.36;59.30;99960.16;4786410;30;20078;-86
2021/10/12 05:44:23;;;;;;;52.58;23.08;;;;;;;8.40;59.14;99959.31;4770468;30;20112;-81
2021/10/12 05:46:49;;;;;;;52.78;21.70;;;;;;;8.59;58.79;99956.72;4787619;30;20047;-90
2021/10/12 05:49:16;;;;;;;51.22;21.33;;;;;;;8.61;57.97;99946.38;4774475;30;20078;-91
2021/10/12 05:51:47;;;;;;;53.65;22.48;;;;;;;8.54;57.78;99924.06;4747336;30;20137;-92
2021/10/12 05:54:23;;;;;;;56.97;23.00;;;;;;;8.84;57.82;99954.91;4761554;30;20092;-93
2021/10/12 05:57:06;;;;;;;52.85;22.05;;;;;;;8.88;57.06;99948.59;4747829;30;20108;-94
2021/10/12 05:59:33;;;;;;;66.97;22.08;;;;;;;8.61;56.95;99897.31;4763683;30;20071;-92
2021/10/12 06:02:27;;;;;;;60.90;22.40;;;;;;;9.03;57.27;99955.00;4775988;30;20051;-96
2021/10/12 06:05:06;;;;;;;53.45;22.23;;;;;;;8.45;57.01;99842.13;4761064;30;20129;-91
2021/10/12 06:07:34;;;;;;;58.25;22.88;;;;;;;9.17;56.37;99951.34;4777289;30;20051;-93
2021/10/12 06:10:00;;;;;;;76.32;23.60;;;;;;;8.86;56.33;99890.81;4748351;30;20051;-94
2021/10/12 06:12:29;;;;;;;60.93;22.50;;;;;;;8.89;56.01;99890.25;4762549;30;20047;-96
2021/10/12 06:14:55;;;;;;;47.17;21.67;;;;;;;9.11;56.22;99906.13;4759356;30;20146;-95
2021/10/12 06:17:21;;;;;;;45.13;21.45;;;;;;;9.22;55.48;99900.56;4759031;30;20054;-94
2021/10/12 06:19:47;;;;;;;61.85;22.38;;;;;;;9.22;55.26;99865.91;4758534;30;20059;-94
2021/10/12 06:22:13;;;;;;;54.55;22.48;;;;;;;9.83;55.21;99944.31;4757782;30;20460;-84
2021/10/12 06:24:39;;;;;;;42.38;21.48;;;;;;;9.86;55.02;99951.91;4787077;30;20051;-81
2021/10/12 06:27:05;;;;;;;54.15;21.60;;;;;;;9.83;54.64;99935.28;4787128;30;20044;-87
2021/10/12 06:29:31;;;;;;;58.78;21.88;;;;;;;9.96;54.53;99950.16;4772417;30;20477;-85
2021/10/12 06:32:00;;;;;;;52.03;21.75;;;;;;;10.02;54.47;99954.44;4789386;30;20050;-84
2021/10/12 06:34:26;;;;;;;60.70;22.23;;;;;;;10.13;53.98;99950.47;4789102;30;20456;-86
2021/10/12 06:36:52;;;;;;;58.50;22.00;;;;;;;10.20;53.25;99950.94;4789118;30;20081;-84
2021/10/12 06:39:17;;;;;;;62.80;22.08;;;;;;;10.29;53.81;99957.38;4788985;30;20047;-83
2021/10/12 06:41:43;;;;;;;64.93;22.05;;;;;;;10.31;53.44;99943.44;4789077;30;20593;-85
2021/10/12 06:44:10;;;;;;;51.70;22.15;;;;;;;10.32;52.71;99947.78;4788999;30;20138;-85
2021/10/12 06:46:36;;;;;;;47.40;21.00;;;;;;;10.31;52.08;99932.50;4797522;29;20038;-78
2021/10/12 06:49:01;;;;;;;43.83;20.15;;;;;;;10.36;52.32;99954.28;4806772;29;20323;-82
2021/10/12 06:51:28;;;;;;;51.20;22.10;;;;;;;10.28;52.13;99936.63;4806279;29;20049;-80
2021/10/12 06:53:54;;;;;;;52.97;22.27;;;;;;;10.31;52.47;99946.97;4806099;29;20513;-86
2021/10/12 06:56:21;;;;;;;53.72;22.38;;;;;;;10.30;52.16;99936.34;4805928;29;20111;-87
2021/10/12 06:58:46;;;;;;;57.80;22.02;;;;;;;10.29;52.43;99929.25;4805609;29;20051;-77
2021/10/12 07:01:13;;;;;;;58.38;22.90;;;;;;;10.39;52.92;99940.00;4805405;29;20051;-79
2021/10/12 07:03:38;;;;;;;53.53;22.98;;;;;;;10.44;52.31;99937.22;4805292;29;20474;-83
2021/10/12 07:06:04;;;;;;;53.58;22.40;;;;;;;10.58;52.48;99932.63;4788596;29;20501;-78
2021/10/12 07:08:30;;;;;;;52.88;22.15;;;;;;;10.65;51.98;99932.22;4803575;29;20051;-78
2021/10/12 07:10:57;;;;;;;54.42;22.27;;;;;;;10.66;51.91;99924.84;4788008;29;20136;-80
2021/10/12 07:13:29;;;;;;;51.38;23.25;;;;;;;10.76;51.42;99927.41;4803855;29;20078;-80
2021/10/12 07:15:57;;;;;;;57.63;22.70;;;;;;;10.85;51.62;99925.63;4787758;29;20039;-83
2021/10/12 07:18:23;;;;;;;;;;;;;;;10.88;51.00;99925.00;4804557;29;20138;-78
2021/10/12 07:20:49;;;;;;;;;;;;;;;10.91;50.68;99927.16;4803858;29;20399;-78
2021/10/12 07:23:17;;;;;;;51.07;20.37;;;;;;;10.90;50.69;99909.13;4803682;29;20027;-85
2021/10/12 07:25:48;;;;;;;50.15;22.17;;;;;;;11.01;50.63;99917.97;4803140;29;20047;-87
2021/10/12 07:28:15;;;;;;;38.78;19.00;;;;;;;11.13;50.77;99929.25;4803536;29;20111;-84
2021/10/12 07:30:41;;;;;;;43.53;19.52;;;;;;;11.26;54.46;99909.28;4802980;29;20042;-85
2021/10/12 07:33:08;;;;;;;48.63;19.10;;;;;;;11.85;50.25;99925.91;4802806;29;20491;-87
2021/10/12 07:35:34;;;;;;;47.10;18.60;;;;;;;12.17;51.63;99924.16;4802316;29;20344;-77
2021/10/12 07:38:01;;;;;;;37.40;17.58;;;;;;;12.37;53.03;99918.19;4802461;29;20357;-82
2021/10/12 07:40:28;;;;;;;40.22;18.42;;;;;;;12.51;48.05;99923.63;4794868;29;20569;-78
2021/10/12 07:42:53;;;;;;;56.67;17.42;;;;;;;12.90;50.41;99914.69;4783747;29;20126;-81
2021/10/12 07:45:19;;;;;;;46.95;18.52;;;;;;;13.08;46.13;99923.06;4783584;29;20154;-77
2021/10/12 07:47:45;;;;;;;45.95;17.80;;;;;;;13.05;46.57;99921.72;4791590;29;20146;-88
2021/10/12 07:50:13;;;;;;;41.50;18.08;;;;;;;13.27;46.30;99925.56;4793685;29;20100;-83
2021/10/12 07:52:39;;;;;;;52.78;17.23;;;;;;;13.38;47.00;99916.75;4790866;30;20062;-85
2021/10/12 07:57:32;;;;;;;37.60;16.53;;;;;;;13.35;44.78;99916.59;4788421;30;20658;-89
2021/10/12 07:59:58;;;;;;;97.32;20.65;;;;;;;13.40;45.08;99913.69;4787366;29;20062;-81
2021/10/12 08:02:23;;;;;;;41.67;17.67;;;;;;;13.74;44.49;99910.25;4791925;29;20129;-91
2021/10/12 08:04:49;;;;;;;45.78;16.67;;;;;;;13.82;42.83;99917.69;4788314;30;20134;-89
2021/10/12 08:07:16;;;;;;;122.40;18.27;;;;;;;13.73;43.59;99907.81;4789029;29;20074;-78
2021/10/12 08:09:43;;;;;;;55.55;21.35;;;;;;;13.70;43.73;99912.00;4786532;30;20043;-86
2021/10/12 08:12:13;;;;;;;43.55;18.15;;;;;;;13.46;43.08;99903.38;4788226;29;20054;-79
2021/10/12 08:14:46;;;;;;;50.85;16.23;;;;;;;13.18;43.29;99903.56;4795014;29;20038;-76
2021/10/12 08:17:12;;;;;;;36.30;18.10;;;;;;;13.15;43.95;99915.16;4804205;29;20043;-86
2021/10/12 08:19:38;;;;;;;49.05;21.02;;;;;;;13.21;44.62;99907.59;4804702;29;20061;-79
2021/10/12 08:22:05;;;;;;;46.50;22.10;;;;;;;13.20;44.55;99895.00;4803988;29;20050;-78
2021/10/12 08:24:31;;;;;;;48.42;17.85;;;;;;;13.16;43.15;99897.56;4803891;29;20046;-84
2021/10/12 08:26:57;;;;;;;192.25;24.20;;;;;;;13.07;43.04;99902.19;4790207;29;20047;-80
2021/10/12 08:29:22;;;;;;;50.78;17.83;;;;;;;13.05;42.52;99896.22;4794467;29;20450;-85
2021/10/12 08:31:50;;;;;;;82.78;18.55;;;;;;;13.06;42.57;99897.84;4791820;29;20062;-78
2021/10/12 08:34:16;;;;;;;46.00;16.73;;;;;;;12.99;42.50;99881.00;4786585;29;20039;-86
2021/10/12 08:36:44;;;;;;;54.00;20.30;;;;;;;13.08;41.74;99892.84;4784990;29;20051;-84
2021/10/12 08:39:10;;;;;;;34.00;15.02;;;;;;;13.01;41.48;99882.28;4791468;29;20044;-83
2021/10/12 08:41:51;;;;;;;34.33;15.07;;;;;;;13.03;41.60;99884.75;4788880;29;20425;-81
2021/10/12 08:44:19;;;;;;;42.53;15.07;;;;;;;13.09;41.39;99889.78;4785894;29;20290;-80
2021/10/12 08:46:47;;;;;;;36.03;14.70;;;;;;;13.08;41.76;99870.91;4786118;29;20062;-78
2021/10/12 08:49:13;;;;;;;49.13;18.33;;;;;;;13.17;42.16;99878.00;4786022;29;20047;-80
2021/10/12 08:51:46;;;;;;;44.97;16.75;;;;;;;13.25;41.49;99872.94;4786089;29;20040;-84
2021/10/12 08:54:14;;;;;;;32.70;13.27;;;;;;;13.24;41.63;99863.88;4794038;29;20075;-80
2021/10/12 08:56:40;;;;;;;29.75;12.10;;;;;;;13.22;41.26;99868.84;4786061;29;20047;-77
2021/10/12 08:59:06;;;;;;;34.40;13.07;;;;;;;13.21;41.55;99858.16;4784592;29;20035;-77
2021/10/12 09:01:56;;;;;;;45.15;17.85;;;;;;;13.28;41.86;99864.06;4786315;29;20065;-75
2021/10/12 09:04:24;;;;;;;43.95;16.08;;;;;;;13.29;41.15;99861.00;4785893;29;20039;-84
2021/10/12 09:06:55;;;;;;;35.47;15.07;;;;;;;13.30;41.31;99856.31;4786282;29;20083;-82
2021/10/12 09:09:34;;;;;;;34.97;12.85;;;;;;;13.38;40.85;99858.28;4786166;29;20506;-76
2021/10/12 09:12:01;;;;;;;32.33;13.02;;;;;;;13.43;41.07;99858.13;4786535;29;20093;-85
2021/10/12 09:14:27;;;;;;;55.95;21.00;;;;;;;13.50;41.49;99863.16;4797299;29;20430;-77
2021/10/12 09:17:06;;;;;;;56.35;22.45;;;;;;;13.49;40.48;99836.81;4797433;29;20123;-83
2021/10/12 09:19:34;;;;;;;72.68;30.20;;;;;;;13.44;40.49;99823.22;4823247;29;20137;-77
2021/10/12 09:22:05;;;;;;;97.13;45.08;;;;;;;13.59;40.42;99842.81;4822805;29;20049;-86
2021/10/12 09:24:40;;;;;;;42.53;17.92;;;;;;;13.60;40.09;99838.94;4822958;29;20077;-78
2021/10/12 09:27:10;;;;;;;40.05;15.85;;;;;;;13.59;40.00;99831.03;4822845;29;20534;-87
2021/10/12 09:29:41;;;;;;;61.15;24.33;;;;;;;13.69;40.00;99840.91;4821205;29;20402;-85
2021/10/12 09:32:08;;;;;;;48.88;18.75;;;;;;;13.73;39.89;99837.19;4821118;29;20099;-87
2021/10/12 09:34:36;;;;;;;41.67;18.83;;;;;;;13.69;39.86;99830.72;4814457;29;20053;-86
2021/10/12 09:37:05;;;;;;;42.50;18.58;;;;;;;13.69;40.46;99818.91;4797896;29;20050;-87
2021/10/12 09:39:37;;;;;;;49.35;20.42;;;;;;;13.65;39.75;99828.94;4788969;30;20049;-85
2021/10/12 09:42:17;;;;;;;28.67;14.63;;;;;;;13.68;39.63;99814.56;4811542;29;20043;-87
2021/10/12 09:45:00;;;;;;;45.53;17.20;;;;;;;13.70;39.21;99815.84;4826552;29;20050;-86
2021/10/12 09:47:27;;;;;;;32.92;13.38;;;;;;;13.71;39.48;99822.13;4809958;29;20470;-79
2021/10/12 09:50:11;;;;;;;30.92;13.88;;;;;;;13.69;38.97;99803.25;4826397;29;20081;-85
2021/10/12 09:52:41;;;;;;;31.25;12.48;;;;;;;13.80;38.96;99815.53;4823258;29;20070;-85
2021/10/12 09:55:09;;;;;;;43.72;17.25;;;;;;;13.90;39.16;99811.66;4808153;29;20137;-88
2021/10/12 09:57:36;;;;;;;33.47;12.90;;;;;;;13.94;38.39;99800.81;4791601;29;20161;-82
2021/10/12 10:00:04;;;;;;;29.00;14.90;;;;;;;13.98;38.49;99799.88;4807946;29;20665;-82
2021/10/12 10:02:38;;;;;;;43.95;11.63;;;;;;;13.94;38.11;99795.31;4807968;29;20074;-79
2021/10/12 10:05:06;;;;;;;30.42;12.88;;;;;;;13.92;37.71;99792.09;4807874;29;20078;-85
2021/10/12 10:08:00;;;;;;;30.75;11.98;;;;;;;13.96;37.84;99790.31;4813507;29;20058;-85
2021/10/12 10:10:26;;;;;;;27.40;10.45;;;;;;;13.97;37.84;99789.19;4797552;29;20543;-85
2021/10/12 10:12:52;;;;;;;24.60;12.47;;;;;;;13.98;38.44;99777.88;4789860;30;20065;-82
2021/10/12 10:15:19;;;;;;;30.27;13.43;;;;;;;14.17;37.97;99788.53;4802374;29;20107;-84
2021/10/12 10:17:46;;;;;;;33.38;13.20;;;;;;;14.18;37.42;99778.34;4807869;29;20505;-87
2021/10/12 10:20:14;;;;;;;31.83;11.85;;;;;;;14.10;37.27;99789.03;4806594;29;20146;-85
2021/10/12 13:11:55;;;;;;;83.25;21.35;;;;;;;14.29;38.21;99700.66;5118776;24;19929;-84
2021/10/12 13:14:21;;;;;;;69.03;25.33;;;;;;;14.23;38.54;99693.72;4804894;29;20527;-80
2021/10/12 13:16:47;;;;;;;104.30;35.88;;;;;;;14.22;38.64;99688.56;4804977;29;20051;-80
2021/10/12 13:19:13;;;;;;;93.53;29.58;;;;;;;14.23;38.57;99688.22;4804642;29;20055;-78
2021/10/12 13:21:39;;;;;;;77.95;25.88;;;;;;;14.17;38.27;99685.97;4804961;29;20054;-79
2021/10/12 13:24:05;;;;;;;373.70;214.73;;;;;;;13.99;38.86;99677.78;4788775;29;20043;-80
2021/10/12 13:26:31;;;;;;;181.52;87.35;;;;;;;14.03;38.88;99686.16;4805083;29;20050;-80
2021/10/12 13:28:57;;;;;;;63.58;23.42;;;;;;;13.96;39.29;99685.88;4804700;29;20130;-81
2021/10/12 13:31:28;;;;;;;194.33;93.07;;;;;;;13.92;39.18;99687.66;4804976;29;20061;-80
2021/10/12 13:33:55;;;;;;;274.27;121.78;;;;;;;13.86;39.18;99682.31;4804975;29;20308;-80
2021/10/12 13:36:21;;;;;;;310.85;111.70;;;;;;;13.85;39.72;99683.47;4804399;29;20046;-82
2021/10/12 13:38:47;;;;;;;289.60;99.68;;;;;;;13.90;39.60;99679.72;4803568;29;20053;-79
2021/10/12 13:41:14;;;;;;;174.50;68.35;;;;;;;13.86;39.24;99679.56;4803432;29;20412;-89
2021/10/12 13:43:41;;;;;;;138.25;50.90;;;;;;;13.86;39.64;99682.31;4803550;29;20039;-80
2021/10/12 13:46:07;;;;;;;283.92;118.20;;;;;;;13.72;39.46;99669.91;4803668;29;20054;-80
2021/10/12 13:48:36;;;;;;;189.57;78.75;;;;;;;13.75;39.45;99674.75;4787842;29;20062;-80
2021/10/12 13:51:05;;;;;;;111.03;39.55;;;;;;;13.72;39.95;99664.41;4804802;29;20540;-81
2021/10/12 13:53:32;;;;;;;106.72;47.08;;;;;;;13.77;39.86;99678.78;4804873;29;20058;-80
2021/10/12 13:55:58;;;;;;;140.60;36.30;;;;;;;13.63;40.02;99669.91;4788196;29;20092;-91
2021/10/12 13:58:26;;;;;;;105.15;43.13;;;;;;;13.61;40.11;99675.75;4804621;29;20062;-81
2021/10/12 14:00:52;;;;;;;78.00;30.98;;;;;;;13.56;40.57;99675.91;4804806;29;20047;-81
2021/10/12 14:03:18;;;;;;;148.23;45.72;;;;;;;13.44;40.96;99662.00;4804401;29;20505;-80
2021/10/12 14:05:45;;;;;;;345.75;128.23;;;;;;;13.42;40.80;99657.97;4810568;29;20522;-84
2021/10/12 14:08:10;;;;;;;341.83;132.57;;;;;;;13.33;40.88;99658.78;4804472;29;20141;-81
2021/10/12 14:10:36;;;;;;;295.63;108.90;;;;;;;13.35;40.76;99664.75;4787047;29;21936;-81
2021/10/12 14:13:03;;;;;;;71.38;24.98;;;;;;;13.23;41.21;99655.50;4803576;29;20548;-79
2021/10/12 14:15:29;;;;;;;112.83;35.20;;;;;;;13.20;41.52;99658.91;4803287;29;20077;-78
2021/10/12 14:17:57;;;;;;;186.05;67.80;;;;;;;13.15;42.00;99657.94;4787095;29;20469;-79
2021/10/12 14:20:27;;;;;;;99.25;39.08;;;;;;;13.15;41.70;99670.84;4771859;29;20270;-80
2021/10/12 14:22:53;;;;;;;92.90;37.50;;;;;;;13.14;42.37;99671.97;4804086;29;20047;-80
2021/10/12 14:25:23;;;;;;;92.32;44.58;;;;;;;13.11;42.41;99661.63;4806384;29;20046;-79
2021/10/12 14:27:52;;;;;;;75.07;31.85;;;;;;;13.03;42.14;99662.44;4790122;29;20069;-78
2021/10/12 14:30:19;;;;;;;71.18;29.77;;;;;;;12.96;42.34;99653.88;4806334;29;20593;-85
2021/10/12 14:32:45;;;;;;;80.38;31.70;;;;;;;12.88;42.58;99648.06;4806298;29;20073;-79
2021/10/12 14:35:11;;;;;;;90.95;27.10;;;;;;;12.89;42.07;99655.16;4806328;29;20070;-82
2021/10/12 14:37:40;;;;;;;93.18;27.65;;;;;;;12.89;42.55;99654.34;4806353;29;20046;-84
2021/10/12 14:40:09;;;;;;;114.60;35.03;;;;;;;12.87;42.85;99653.84;4806281;29;20069;-80
2021/10/12 14:42:38;;;;;;;80.70;31.15;;;;;;;12.91;42.26;99654.81;4806076;29;20055;-87
2021/10/12 14:45:05;;;;;;;133.98;30.15;;;;;;;12.84;42.05;99647.06;4806121;29;20099;-81
2021/10/12 14:47:32;;;;;;;117.53;30.90;;;;;;;12.85;42.31;99650.63;4806251;29;20054;-80
2021/10/12 14:49:58;;;;;;;133.05;36.90;;;;;;;12.79;42.21;99655.44;4806092;29;20050;-80
2021/10/12 14:52:24;;;;;;;109.80;31.27;;;;;;;12.78;41.76;99642.88;4805904;29;20096;-80
2021/10/12 14:54:50;;;;;;;97.53;32.55;;;;;;;12.72;42.36;99637.84;4806029;29;20046;-78
2021/10/12 14:57:16;;;;;;;121.65;33.33;;;;;;;12.63;42.20;99629.59;4806594;29;20050;-79
2021/10/12 14:59:43;;;;;;;188.18;48.38;;;;;;;12.67;41.99;99641.53;4802296;29;20118;-76
2021/10/12 15:02:09;;;;;;;;;;;;;;;12.60;42.48;99643.94;4809533;29;20039;-77
2021/10/12 15:04:35;;;;;;;115.17;34.53;;;;;;;12.54;43.09;99653.44;4805132;29;19925;-77
2021/10/12 15:07:02;;;;;;;99.18;33.20;;;;;;;12.49;43.11;99646.16;4801098;29;20133;-76
2021/10/12 15:09:32;;;;;;;110.07;34.53;;;;;;;12.45;43.10;99645.19;4804221;29;20057;-77
2021/10/12 15:12:03;;;;;;;124.82;42.00;;;;;;;12.43;42.61;99647.44;4804344;29;20047;-76
2021/10/12 15:14:30;;;;;;;120.28;36.97;;;;;;;12.38;43.21;99648.41;4787424;29;20108;-80
2021/10/12 15:16:57;;;;;;;94.90;30.92;;;;;;;12.29;42.97;99635.78;4804118;29;20039;-77
2021/10/12 15:19:27;;;;;;;105.50;33.47;;;;;;;12.28;43.55;99647.84;4803140;29;20161;-76
2021/10/12 15:21:58;;;;;;;122.78;39.70;;;;;;;12.17;44.20;99636.38;4787513;29;20043;-76
2021/10/12 15:24:24;;;;;;;125.70;36.30;;;;;;;12.21;44.42;99645.56;4804850;29;20145;-76
2021/10/12 15:26:51;;;;;;;96.60;32.67;;;;;;;12.15;44.27;99638.59;4803078;29;20076;-76
2021/10/12 15:29:18;;;;;;;72.93;24.90;;;;;;;12.07;44.28;99622.94;4802472;29;20047;-78
2021/10/12 15:31:44;;;;;;;72.93;24.00;;;;;;;12.10;44.46;99631.34;4802817;29;20047;-77
2021/10/12 15:34:10;;;;;;;63.28;23.17;;;;;;;12.12;44.02;99628.25;4785303;29;20054;-77
2021/10/12 15:36:37;;;;;;;77.25;26.65;;;;;;;12.07;44.22;99631.16;4802176;29;20042;-76
2021/10/12 15:39:23;;;;;;;67.53;25.02;;;;;;;12.02;44.84;99628.53;4802045;29;20054;-76
2021/10/12 15:41:53;;;;;;;82.50;21.73;;;;;;;11.98;44.95;99634.66;4802796;29;20051;-78
2021/10/12 15:44:20;;;;;;;70.47;21.30;;;;;;;11.97;45.03;99627.56;4802476;29;20043;-76
2021/10/12 15:46:48;;;;;;;55.70;18.85;;;;;;;11.87;44.56;99616.88;4802539;29;20187;-76
2021/10/12 15:49:14;;;;;;;60.20;18.10;;;;;;;11.85;44.96;99623.78;4772002;29;20050;-76
2021/10/12 15:51:42;;;;;;;52.42;20.13;;;;;;;11.85;44.59;99621.03;4807308;29;20043;-77
2021/10/12 15:54:08;;;;;;;;;;;;;;;11.88;44.86;99623.97;4817555;29;20059;-78
2021/10/12 15:56:36;;;;;;;46.25;16.35;;;;;;;11.83;45.07;99624.06;4803512;29;19924;-76
2021/10/12 15:59:05;;;;;;;41.10;15.70;;;;;;;11.74;44.91;99613.06;4803442;29;20505;-76
2021/10/12 16:01:33;;;;;;;46.20;14.23;;;;;;;11.75;44.87;99619.34;4804714;29;20070;-76
2021/10/12 16:04:01;;;;;;;38.40;12.55;;;;;;;11.73;45.01;99619.66;4803425;29;20057;-76
2021/10/12 16:06:27;;;;;;;33.80;13.60;;;;;;;11.70;45.17;99619.50;4803438;29;20046;-76
2021/10/12 16:08:55;;;;;;;39.55;12.60;;;;;;;11.68;45.15;99616.25;4803377;29;20104;-78
2021/10/12 16:11:22;;;;;;;34.33;11.77;;;;;;;11.65;45.24;99619.59;4804104;29;20051;-83
2021/10/12 16:13:47;;;;;;;47.45;13.70;;;;;;;11.64;45.16;99609.78;4804240;29;20099;-78
2021/10/12 16:17:06;;;;;;;46.40;14.43;;;;;;;11.57;45.02;99603.94;4803409;29;20069;-77
2021/10/12 16:19:23;;;;;;;34.35;12.23;;;;;;;11.56;45.06;99614.09;4802759;29;20459;-86
2021/10/12 16:21:54;;;;;;;57.50;11.70;;;;;;;11.61;44.95;99619.41;4803828;29;20125;-82
2021/10/12 16:24:24;;;;;;;41.67;11.77;;;;;;;11.63;45.25;99624.59;4803597;29;20045;-85
2021/10/12 16:26:52;;;;;;;24.77;10.80;;;;;;;11.55;45.31;99619.84;4803699;29;20042;-80
2021/10/12 16:29:24;;;;;;;25.58;10.85;;;;;;;11.53;45.45;99626.47;4803758;29;20043;-79
2021/10/12 16:31:55;;;;;;;31.95;11.90;;;;;;;11.53;45.66;99620.19;4802623;29;20405;-76
2021/10/12 16:34:25;;;;;;;37.90;12.27;;;;;;;11.57;45.65;99617.63;4803115;29;20047;-77
2021/10/12 16:36:55;;;;;;;22.15;11.15;;;;;;;11.53;45.77;99625.66;4803344;29;20528;-78
2021/10/12 16:39:26;;;;;;;35.38;10.73;;;;;;;11.37;46.09;99611.53;4802914;29;20050;-77
2021/10/12 16:41:53;;;;;;;26.48;9.95;;;;;;;11.41;45.69;99622.66;4802120;29;20042;-81
2021/10/12 16:44:19;;;;;;;25.70;10.95;;;;;;;11.47;45.81;99624.97;4802135;29;20129;-77
2021/10/12 16:46:46;;;;;;;24.00;11.00;;;;;;;11.42;45.96;99616.91;4802838;29;20457;-76
2021/10/12 16:49:13;;;;;;;27.08;11.23;;;;;;;11.35;45.99;99612.97;4802554;29;20073;-78
2021/10/12 16:51:39;;;;;;;47.17;11.32;;;;;;;11.37;46.10;99616.19;4794990;29;20042;-80
2021/10/12 16:54:05;;;;;;;23.63;10.75;;;;;;;11.33;45.75;99617.94;4802808;29;20134;-76
2021/10/12 16:56:34;;;;;;;30.33;11.05;;;;;;;11.33;45.79;99609.75;4795994;29;20509;-76
2021/10/12 16:59:13;;;;;;;34.40;11.57;;;;;;;11.33;46.44;99615.22;4802232;29;20046;-77
2021/10/12 17:01:45;;;;;;;26.65;11.45;;;;;;;11.23;46.37;99595.19;4794617;29;20054;-76
2021/10/12 17:04:15;;;;;;;31.38;10.60;;;;;;;11.32;46.10;99608.91;4801689;29;20077;-78
2021/10/12 17:06:42;;;;;;;28.90;11.38;;;;;;;11.31;46.45;99612.78;4777622;29;20047;-77
2021/10/12 17:09:12;;;;;;;34.38;12.50;;;;;;;11.28;46.53;99616.94;4802187;29;20038;-78
2021/10/12 17:11:39;;;;;;;22.38;11.75;;;;;;;11.28;46.80;99618.88;4793956;29;20823;-79
2021/10/12 17:14:07;;;;;;;24.13;11.18;;;;;;;11.30;46.72;99624.84;4803992;29;20047;-79
2021/10/12 17:16:34;;;;;;;26.23;10.75;;;;;;;11.20;46.92;99616.88;4776673;29;20051;-77
2021/10/12 17:19:03;;;;;;;29.88;9.95;;;;;;;11.14;46.90;99616.19;4785912;29;20043;-77